Available data for KLBE from the past 2 hours
LATROBE/WESTMORL, PA
Metar
KLBE 210515Z AUTO 14004KT 10SM BKN085 BKN120 08/M06 A3002 RMK AO2

05:15 UTC

Wind: 140° 4kt

Visibility: 10 SM

Sky: BKN 8500 ft

Temp: 8 deg C / 46.4 deg F

Dewpoint: -6 deg C / 21.2 deg F

Pressure: 30.02 inHg

TAF
KLBE 202320Z 2100/2124 15006KT P6SM OVC100